sensor_id;sensor_type;location;lat;lon;timestamp;temperature;humidity
67163;DHT22;54092;53.088;8.850;2024-01-11T00:00:28;-5.10;99.90
67163;DHT22;54092;53.088;8.850;2024-01-11T00:02:54;-5.10;99.90
67163;DHT22;54092;53.088;8.850;2024-01-11T00:05:19;-3.90;99.90
67163;DHT22;54092;53.088;8.850;2024-01-11T00:07:45;-4.90;99.90
67163;DHT22;54092;53.088;8.850;2024-01-11T00:10:10;-5.00;99.90
67163;DHT22;54092;53.088;8.850;2024-01-11T00:12:35;-5.00;99.90
67163;DHT22;54092;53.088;8.850;2024-01-11T00:15:01;-5.00;99.90
67163;DHT22;54092;53.088;8.850;2024-01-11T00:17:26;-5.00;99.90
67163;DHT22;54092;53.088;8.850;2024-01-11T00:19:52;-5.10;99.90
67163;DHT22;54092;53.088;8.850;2024-01-11T00:22:17;-5.00;99.90
67163;DHT22;54092;53.088;8.850;2024-01-11T00:24:43;-4.90;99.90
67163;DHT22;54092;53.088;8.850;2024-01-11T00:27:08;-5.00;99.90
67163;DHT22;54092;53.088;8.850;2024-01-11T00:29:35;-5.00;99.90
67163;DHT22;54092;53.088;8.850;2024-01-11T00:32:01;-5.10;99.90
67163;DHT22;54092;53.088;8.850;2024-01-11T00:34:26;-5.10;99.90
67163;DHT22;54092;53.088;8.850;2024-01-11T00:36:51;-5.10;99.90
67163;DHT22;54092;53.088;8.850;2024-01-11T00:39:17;-5.10;99.90
67163;DHT22;54092;53.088;8.850;2024-01-11T00:41:42;-5.10;99.90
67163;DHT22;54092;53.088;8.850;2024-01-11T00:44:08;-5.10;99.90
67163;DHT22;54092;53.088;8.850;2024-01-11T00:46:34;-5.10;99.90
67163;DHT22;54092;53.088;8.850;2024-01-11T00:49:00;-5.20;99.90
67163;DHT22;54092;53.088;8.850;2024-01-11T00:51:25;-5.10;99.90
67163;DHT22;54092;53.088;8.850;2024-01-11T00:53:51;-5.10;99.90
67163;DHT22;54092;53.088;8.850;2024-01-11T00:56:17;-5.00;99.90
67163;DHT22;54092;53.088;8.850;2024-01-11T00:58:42;-4.90;99.90
67163;DHT22;54092;53.088;8.850;2024-01-11T01:01:11;-4.90;99.90
67163;DHT22;54092;53.088;8.850;2024-01-11T01:03:37;-4.80;99.90
67163;DHT22;54092;53.088;8.850;2024-01-11T01:06:02;-4.80;99.90
67163;DHT22;54092;53.088;8.850;2024-01-11T01:08:28;-4.70;99.90
67163;DHT22;54092;53.088;8.850;2024-01-11T01:10:53;-4.70;99.90
67163;DHT22;54092;53.088;8.850;2024-01-11T01:13:19;-4.70;99.90
67163;DHT22;54092;53.088;8.850;2024-01-11T01:15:44;-4.70;99.90
67163;DHT22;54092;53.088;8.850;2024-01-11T01:18:10;-4.80;99.90
67163;DHT22;54092;53.088;8.850;2024-01-11T01:20:35;-4.80;99.90
67163;DHT22;54092;53.088;8.850;2024-01-11T01:23:01;-4.80;99.90
67163;DHT22;54092;53.088;8.850;2024-01-11T01:25:26;-4.80;99.90
67163;DHT22;54092;53.088;8.850;2024-01-11T01:27:52;-4.80;99.90
67163;DHT22;54092;53.088;8.850;2024-01-11T01:30:17;-4.80;99.90
67163;DHT22;54092;53.088;8.850;2024-01-11T01:32:43;-4.70;99.90
67163;DHT22;54092;53.088;8.850;2024-01-11T01:35:08;-4.50;99.90
67163;DHT22;54092;53.088;8.850;2024-01-11T01:37:34;-4.70;99.90
67163;DHT22;54092;53.088;8.850;2024-01-11T01:39:59;-4.60;99.90
67163;DHT22;54092;53.088;8.850;2024-01-11T01:42:24;-4.70;99.90
67163;DHT22;54092;53.088;8.850;2024-01-11T01:44:50;-4.80;99.90
67163;DHT22;54092;53.088;8.850;2024-01-11T01:47:15;-4.80;99.90
67163;DHT22;54092;53.088;8.850;2024-01-11T01:49:42;-4.90;99.90
67163;DHT22;54092;53.088;8.850;2024-01-11T01:52:08;-5.00;99.90
67163;DHT22;54092;53.088;8.850;2024-01-11T01:54:33;-5.10;99.90
67163;DHT22;54092;53.088;8.850;2024-01-11T01:56:59;-5.10;99.90
67163;DHT22;54092;53.088;8.850;2024-01-11T01:59:25;-5.10;99.90
67163;DHT22;54092;53.088;8.850;2024-01-11T02:01:51;-5.20;99.90
67163;DHT22;54092;53.088;8.850;2024-01-11T02:04:16;-5.30;99.90
67163;DHT22;54092;53.088;8.850;2024-01-11T02:06:43;-5.30;99.90
67163;DHT22;54092;53.088;8.850;2024-01-11T02:09:09;-5.30;99.90
67163;DHT22;54092;53.088;8.850;2024-01-11T02:11:36;-5.30;99.90
67163;DHT22;54092;53.088;8.850;2024-01-11T02:14:02;-5.30;99.90
67163;DHT22;54092;53.088;8.850;2024-01-11T02:16:28;-5.20;99.90
67163;DHT22;54092;53.088;8.850;2024-01-11T02:18:53;-5.20;99.90
67163;DHT22;54092;53.088;8.850;2024-01-11T02:21:19;-5.20;99.90
67163;DHT22;54092;53.088;8.850;2024-01-11T02:26:14;-5.20;99.90
67163;DHT22;54092;53.088;8.850;2024-01-11T02:28:44;-5.20;99.90
67163;DHT22;54092;53.088;8.850;2024-01-11T02:31:09;-5.20;99.90
67163;DHT22;54092;53.088;8.850;2024-01-11T02:33:35;-5.20;99.90
67163;DHT22;54092;53.088;8.850;2024-01-11T02:36:01;-5.10;99.90
67163;DHT22;54092;53.088;8.850;2024-01-11T02:38:27;-5.10;99.90
67163;DHT22;54092;53.088;8.850;2024-01-11T02:40:52;-5.10;99.90
67163;DHT22;54092;53.088;8.850;2024-01-11T02:43:18;-5.10;99.90
67163;DHT22;54092;53.088;8.850;2024-01-11T02:45:44;-5.10;99.90
67163;DHT22;54092;53.088;8.850;2024-01-11T02:48:09;-5.10;99.90
67163;DHT22;54092;53.088;8.850;2024-01-11T02:50:35;-5.10;99.90
67163;DHT22;54092;53.088;8.850;2024-01-11T02:53:00;-5.10;99.90
67163;DHT22;54092;53.088;8.850;2024-01-11T02:55:26;-5.10;99.90
67163;DHT22;54092;53.088;8.850;2024-01-11T02:57:51;-5.10;99.90
67163;DHT22;54092;53.088;8.850;2024-01-11T03:00:16;-5.10;99.90
67163;DHT22;54092;53.088;8.850;2024-01-11T03:02:42;-4.90;99.90
67163;DHT22;54092;53.088;8.850;2024-01-11T03:05:07;-4.90;99.90
67163;DHT22;54092;53.088;8.850;2024-01-11T03:07:33;-4.80;99.90
67163;DHT22;54092;53.088;8.850;2024-01-11T03:09:58;-4.80;99.90
67163;DHT22;54092;53.088;8.850;2024-01-11T03:12:24;-4.80;99.90
67163;DHT22;54092;53.088;8.850;2024-01-11T03:14:51;-4.80;99.90
67163;DHT22;54092;53.088;8.850;2024-01-11T03:17:16;-4.90;99.90
67163;DHT22;54092;53.088;8.850;2024-01-11T03:19:42;-4.40;99.90
67163;DHT22;54092;53.088;8.850;2024-01-11T03:22:07;-4.90;99.90
67163;DHT22;54092;53.088;8.850;2024-01-11T03:24:33;-4.90;99.90
67163;DHT22;54092;53.088;8.850;2024-01-11T03:27:02;-4.80;99.90
67163;DHT22;54092;53.088;8.850;2024-01-11T03:29:27;-4.80;99.90
67163;DHT22;54092;53.088;8.850;2024-01-11T03:31:53;-4.80;99.90
67163;DHT22;54092;53.088;8.850;2024-01-11T03:34:18;-4.80;99.90
67163;DHT22;54092;53.088;8.850;2024-01-11T03:36:44;-4.80;99.90
67163;DHT22;54092;53.088;8.850;2024-01-11T03:39:09;-4.80;99.90
67163;DHT22;54092;53.088;8.850;2024-01-11T03:41:34;-4.80;99.90
67163;DHT22;54092;53.088;8.850;2024-01-11T03:44:00;-4.80;99.90
67163;DHT22;54092;53.088;8.850;2024-01-11T03:46:25;-4.80;99.90
67163;DHT22;54092;53.088;8.850;2024-01-11T03:48:51;-4.90;99.90
67163;DHT22;54092;53.088;8.850;2024-01-11T03:51:16;-4.80;99.90
67163;DHT22;54092;53.088;8.850;2024-01-11T03:53:42;-4.80;99.90
67163;DHT22;54092;53.088;8.850;2024-01-11T03:56:07;-4.80;99.90
67163;DHT22;54092;53.088;8.850;2024-01-11T03:58:33;-4.90;99.90
67163;DHT22;54092;53.088;8.850;2024-01-11T04:00:58;-4.90;99.90
67163;DHT22;54092;53.088;8.850;2024-01-11T04:03:25;-4.90;99.90
67163;DHT22;54092;53.088;8.850;2024-01-11T04:05:50;-4.90;99.90
67163;DHT22;54092;53.088;8.850;2024-01-11T04:08:15;-5.10;99.90
67163;DHT22;54092;53.088;8.850;2024-01-11T04:10:41;-5.10;99.90
67163;DHT22;54092;53.088;8.850;2024-01-11T04:13:06;-5.10;99.90
67163;DHT22;54092;53.088;8.850;2024-01-11T04:15:32;-5.10;99.90
67163;DHT22;54092;53.088;8.850;2024-01-11T04:17:57;-5.00;99.90
67163;DHT22;54092;53.088;8.850;2024-01-11T04:20:23;-5.00;99.90
67163;DHT22;54092;53.088;8.850;2024-01-11T04:22:49;-5.20;99.90
67163;DHT22;54092;53.088;8.850;2024-01-11T04:25:15;-5.20;99.90
67163;DHT22;54092;53.088;8.850;2024-01-11T04:27:40;-5.20;99.90
67163;DHT22;54092;53.088;8.850;2024-01-11T04:30:06;-5.20;99.90
67163;DHT22;54092;53.088;8.850;2024-01-11T04:32:31;-5.20;99.90
67163;DHT22;54092;53.088;8.850;2024-01-11T04:34:57;-5.20;99.90
67163;DHT22;54092;53.088;8.850;2024-01-11T04:37:22;-5.10;99.90
67163;DHT22;54092;53.088;8.850;2024-01-11T04:39:48;-5.10;99.90
67163;DHT22;54092;53.088;8.850;2024-01-11T04:42:13;-5.10;99.90
67163;DHT22;54092;53.088;8.850;2024-01-11T04:44:39;-5.20;99.90
67163;DHT22;54092;53.088;8.850;2024-01-11T04:47:05;-5.10;99.90
67163;DHT22;54092;53.088;8.850;2024-01-11T04:49:30;-5.10;99.90
67163;DHT22;54092;53.088;8.850;2024-01-11T04:51:55;-5.10;99.90
67163;DHT22;54092;53.088;8.850;2024-01-11T04:54:21;-5.00;99.90
67163;DHT22;54092;53.088;8.850;2024-01-11T04:56:46;-5.00;99.90
67163;DHT22;54092;53.088;8.850;2024-01-11T04:59:12;-4.90;99.90
67163;DHT22;54092;53.088;8.850;2024-01-11T05:01:37;-4.90;99.90
67163;DHT22;54092;53.088;8.850;2024-01-11T05:04:03;-4.90;99.90
67163;DHT22;54092;53.088;8.850;2024-01-11T05:06:28;-4.90;99.90
67163;DHT22;54092;53.088;8.850;2024-01-11T05:08:54;-4.80;99.90
67163;DHT22;54092;53.088;8.850;2024-01-11T05:11:22;-4.80;99.90
67163;DHT22;54092;53.088;8.850;2024-01-11T05:13:49;-4.80;99.90
67163;DHT22;54092;53.088;8.850;2024-01-11T05:16:18;-4.80;99.90
67163;DHT22;54092;53.088;8.850;2024-01-11T05:18:44;-4.70;99.90
67163;DHT22;54092;53.088;8.850;2024-01-11T05:21:10;-3.90;99.90
67163;DHT22;54092;53.088;8.850;2024-01-11T05:23:35;-4.60;99.90
67163;DHT22;54092;53.088;8.850;2024-01-11T05:26:01;-4.50;99.90
67163;DHT22;54092;53.088;8.850;2024-01-11T05:28:27;-4.50;99.90
67163;DHT22;54092;53.088;8.850;2024-01-11T05:30:52;-4.30;99.90
67163;DHT22;54092;53.088;8.850;2024-01-11T05:33:18;-4.30;99.90
67163;DHT22;54092;53.088;8.850;2024-01-11T05:35:43;-4.30;99.90
67163;DHT22;54092;53.088;8.850;2024-01-11T05:38:09;-4.40;99.90
67163;DHT22;54092;53.088;8.850;2024-01-11T05:40:34;-4.30;99.90
67163;DHT22;54092;53.088;8.850;2024-01-11T05:42:59;-4.30;99.90
67163;DHT22;54092;53.088;8.850;2024-01-11T05:45:25;-4.30;99.90
67163;DHT22;54092;53.088;8.850;2024-01-11T05:47:50;-4.20;99.90
67163;DHT22;54092;53.088;8.850;2024-01-11T05:50:16;-4.20;99.90
67163;DHT22;54092;53.088;8.850;2024-01-11T05:52:41;-4.10;99.90
67163;DHT22;54092;53.088;8.850;2024-01-11T05:55:07;-4.10;99.90
67163;DHT22;54092;53.088;8.850;2024-01-11T05:57:33;-4.00;99.90
67163;DHT22;54092;53.088;8.850;2024-01-11T05:59:58;-3.90;99.90
67163;DHT22;54092;53.088;8.850;2024-01-11T06:02:23;-3.90;99.90
67163;DHT22;54092;53.088;8.850;2024-01-11T06:04:49;-3.90;99.90
67163;DHT22;54092;53.088;8.850;2024-01-11T06:07:15;-3.30;99.90
67163;DHT22;54092;53.088;8.850;2024-01-11T06:09:40;-3.90;99.90
67163;DHT22;54092;53.088;8.850;2024-01-11T06:12:05;-3.80;99.90
67163;DHT22;54092;53.088;8.850;2024-01-11T06:14:31;-3.80;99.90
67163;DHT22;54092;53.088;8.850;2024-01-11T06:16:56;-3.70;99.90
67163;DHT22;54092;53.088;8.850;2024-01-11T06:19:22;-3.80;99.90
67163;DHT22;54092;53.088;8.850;2024-01-11T06:21:48;-3.80;99.90
67163;DHT22;54092;53.088;8.850;2024-01-11T06:24:13;-3.70;99.90
67163;DHT22;54092;53.088;8.850;2024-01-11T06:26:39;-3.70;99.90
67163;DHT22;54092;53.088;8.850;2024-01-11T06:29:04;-3.70;99.90
67163;DHT22;54092;53.088;8.850;2024-01-11T06:31:29;-3.60;99.90
67163;DHT22;54092;53.088;8.850;2024-01-11T06:33:55;-3.60;99.90
67163;DHT22;54092;53.088;8.850;2024-01-11T06:36:21;-3.50;99.90
67163;DHT22;54092;53.088;8.850;2024-01-11T06:38:46;-3.50;99.90
67163;DHT22;54092;53.088;8.850;2024-01-11T06:41:11;-3.40;99.90
67163;DHT22;54092;53.088;8.850;2024-01-11T06:43:37;-3.30;99.90
67163;DHT22;54092;53.088;8.850;2024-01-11T06:46:05;-3.20;99.90
67163;DHT22;54092;53.088;8.850;2024-01-11T06:48:31;-3.20;99.90
67163;DHT22;54092;53.088;8.850;2024-01-11T06:50:57;-3.10;99.90
67163;DHT22;54092;53.088;8.850;2024-01-11T06:53:22;-3.00;99.90
67163;DHT22;54092;53.088;8.850;2024-01-11T06:55:48;-3.00;99.90
67163;DHT22;54092;53.088;8.850;2024-01-11T06:58:15;-2.90;99.90
67163;DHT22;54092;53.088;8.850;2024-01-11T07:00:40;-2.90;99.90
67163;DHT22;54092;53.088;8.850;2024-01-11T07:03:11;-2.90;99.90
67163;DHT22;54092;53.088;8.850;2024-01-11T07:05:36;-2.90;99.90
67163;DHT22;54092;53.088;8.850;2024-01-11T07:08:02;-2.90;99.90
67163;DHT22;54092;53.088;8.850;2024-01-11T07:10:28;-3.00;99.90
67163;DHT22;54092;53.088;8.850;2024-01-11T07:12:53;-3.10;99.90
67163;DHT22;54092;53.088;8.850;2024-01-11T07:15:18;-3.00;99.90
67163;DHT22;54092;53.088;8.850;2024-01-11T07:17:44;-3.00;99.90
67163;DHT22;54092;53.088;8.850;2024-01-11T07:20:09;-3.10;99.90
67163;DHT22;54092;53.088;8.850;2024-01-11T07:22:35;-3.10;99.90
67163;DHT22;54092;53.088;8.850;2024-01-11T07:25:01;-3.10;99.90
67163;DHT22;54092;53.088;8.850;2024-01-11T07:27:26;-3.20;99.90
67163;DHT22;54092;53.088;8.850;2024-01-11T07:29:51;-3.20;99.90
67163;DHT22;54092;53.088;8.850;2024-01-11T07:32:17;-3.20;99.90
67163;DHT22;54092;53.088;8.850;2024-01-11T07:34:42;-3.20;99.90
67163;DHT22;54092;53.088;8.850;2024-01-11T07:37:08;-3.20;99.90
67163;DHT22;54092;53.088;8.850;2024-01-11T07:39:33;-3.20;99.90
67163;DHT22;54092;53.088;8.850;2024-01-11T07:41:59;-3.20;99.90
67163;DHT22;54092;53.088;8.850;2024-01-11T07:44:25;-3.20;99.90
67163;DHT22;54092;53.088;8.850;2024-01-11T07:46:50;-3.20;99.90
67163;DHT22;54092;53.088;8.850;2024-01-11T07:49:15;-3.10;99.90
67163;DHT22;54092;53.088;8.850;2024-01-11T07:51:41;-3.00;99.90
67163;DHT22;54092;53.088;8.850;2024-01-11T07:54:06;-3.10;99.90
67163;DHT22;54092;53.088;8.850;2024-01-11T07:56:32;-3.10;99.90
67163;DHT22;54092;53.088;8.850;2024-01-11T07:58:57;-3.10;99.90
67163;DHT22;54092;53.088;8.850;2024-01-11T08:01:23;-3.10;99.90
67163;DHT22;54092;53.088;8.850;2024-01-11T08:03:48;-3.00;99.90
67163;DHT22;54092;53.088;8.850;2024-01-11T08:06:17;-3.00;99.90
67163;DHT22;54092;53.088;8.850;2024-01-11T08:08:43;-3.00;99.90
67163;DHT22;54092;53.088;8.850;2024-01-11T08:11:09;-2.90;99.90
67163;DHT22;54092;53.088;8.850;2024-01-11T08:13:34;-2.90;99.90
67163;DHT22;54092;53.088;8.850;2024-01-11T08:16:00;-2.80;99.90
67163;DHT22;54092;53.088;8.850;2024-01-11T08:18:26;-2.70;99.90
67163;DHT22;54092;53.088;8.850;2024-01-11T08:20:52;-2.70;99.90
67163;DHT22;54092;53.088;8.850;2024-01-11T08:23:17;-2.70;99.90
67163;DHT22;54092;53.088;8.850;2024-01-11T08:25:43;-2.70;99.90
67163;DHT22;54092;53.088;8.850;2024-01-11T08:28:08;-2.70;99.90
67163;DHT22;54092;53.088;8.850;2024-01-11T08:30:33;-2.70;99.90
67163;DHT22;54092;53.088;8.850;2024-01-11T08:32:59;-2.70;99.90
67163;DHT22;54092;53.088;8.850;2024-01-11T08:35:24;-2.70;99.90
67163;DHT22;54092;53.088;8.850;2024-01-11T08:37:50;-2.70;99.90
67163;DHT22;54092;53.088;8.850;2024-01-11T08:40:15;-2.60;99.90
67163;DHT22;54092;53.088;8.850;2024-01-11T08:42:41;-2.50;99.90
67163;DHT22;54092;53.088;8.850;2024-01-11T08:45:08;-2.40;99.90
67163;DHT22;54092;53.088;8.850;2024-01-11T08:47:34;-2.30;99.90
67163;DHT22;54092;53.088;8.850;2024-01-11T08:50:00;-2.20;99.90
67163;DHT22;54092;53.088;8.850;2024-01-11T08:52:25;-2.20;99.90
67163;DHT22;54092;53.088;8.850;2024-01-11T08:54:51;-2.10;99.90
67163;DHT22;54092;53.088;8.850;2024-01-11T08:57:16;-2.00;99.90
67163;DHT22;54092;53.088;8.850;2024-01-11T08:59:42;-1.90;99.90
67163;DHT22;54092;53.088;8.850;2024-01-11T09:02:07;-1.80;99.90
67163;DHT22;54092;53.088;8.850;2024-01-11T09:04:33;-1.70;99.90
67163;DHT22;54092;53.088;8.850;2024-01-11T09:06:59;-1.70;99.90
67163;DHT22;54092;53.088;8.850;2024-01-11T09:09:25;-1.60;99.90
67163;DHT22;54092;53.088;8.850;2024-01-11T09:11:50;-1.60;99.90
67163;DHT22;54092;53.088;8.850;2024-01-11T09:14:16;-1.50;99.90
67163;DHT22;54092;53.088;8.850;2024-01-11T09:16:41;-1.50;99.90
67163;DHT22;54092;53.088;8.850;2024-01-11T09:19:07;-1.40;99.90
67163;DHT22;54092;53.088;8.850;2024-01-11T09:21:32;-1.30;99.90
67163;DHT22;54092;53.088;8.850;2024-01-11T09:23:57;-1.40;99.90
67163;DHT22;54092;53.088;8.850;2024-01-11T09:26:23;-1.40;99.90
67163;DHT22;54092;53.088;8.850;2024-01-11T09:28:48;-1.40;99.90
67163;DHT22;54092;53.088;8.850;2024-01-11T09:31:14;-1.40;99.90
67163;DHT22;54092;53.088;8.850;2024-01-11T09:33:39;-1.40;99.90
67163;DHT22;54092;53.088;8.850;2024-01-11T09:36:05;-1.40;99.90
67163;DHT22;54092;53.088;8.850;2024-01-11T09:38:31;-1.40;99.90
67163;DHT22;54092;53.088;8.850;2024-01-11T09:41:29;-1.30;99.90
67163;DHT22;54092;53.088;8.850;2024-01-11T09:43:48;-1.20;99.90
67163;DHT22;54092;53.088;8.850;2024-01-11T09:46:16;-1.10;99.90
67163;DHT22;54092;53.088;8.850;2024-01-11T09:48:42;-1.00;99.90
67163;DHT22;54092;53.088;8.850;2024-01-11T09:51:10;-0.90;99.90
67163;DHT22;54092;53.088;8.850;2024-01-11T09:53:37;-0.80;99.90
67163;DHT22;54092;53.088;8.850;2024-01-11T09:56:07;-0.80;99.90
67163;DHT22;54092;53.088;8.850;2024-01-11T09:58:33;-0.70;99.90
67163;DHT22;54092;53.088;8.850;2024-01-11T10:00:59;-0.70;99.90
67163;DHT22;54092;53.088;8.850;2024-01-11T10:03:25;-0.60;99.90
67163;DHT22;54092;53.088;8.850;2024-01-11T10:05:53;-0.60;99.90
67163;DHT22;54092;53.088;8.850;2024-01-11T10:08:21;-0.50;99.90
67163;DHT22;54092;53.088;8.850;2024-01-11T10:10:47;-0.40;99.90
67163;DHT22;54092;53.088;8.850;2024-01-11T10:13:13;-0.50;99.90
67163;DHT22;54092;53.088;8.850;2024-01-11T10:15:39;-0.50;99.90
67163;DHT22;54092;53.088;8.850;2024-01-11T10:18:04;-0.40;99.90
67163;DHT22;54092;53.088;8.850;2024-01-11T10:20:29;-0.30;99.90
67163;DHT22;54092;53.088;8.850;2024-01-11T10:22:57;-0.30;99.90
67163;DHT22;54092;53.088;8.850;2024-01-11T10:25:22;-0.30;99.90
67163;DHT22;54092;53.088;8.850;2024-01-11T10:27:48;-0.30;99.90
67163;DHT22;54092;53.088;8.850;2024-01-11T10:30:14;-0.10;99.90
67163;DHT22;54092;53.088;8.850;2024-01-11T10:32:44;-0.10;99.90
67163;DHT22;54092;53.088;8.850;2024-01-11T10:35:10;-0.10;99.90
67163;DHT22;54092;53.088;8.850;2024-01-11T10:37:36;-0.10;99.90
67163;DHT22;54092;53.088;8.850;2024-01-11T10:40:05;-0.10;99.90
67163;DHT22;54092;53.088;8.850;2024-01-11T10:42:35;-0.10;99.90
67163;DHT22;54092;53.088;8.850;2024-01-11T10:45:02;-0.10;99.90
67163;DHT22;54092;53.088;8.850;2024-01-11T10:47:30;-0.20;99.90
67163;DHT22;54092;53.088;8.850;2024-01-11T10:49:55;-0.20;99.90
67163;DHT22;54092;53.088;8.850;2024-01-11T10:52:22;-0.10;99.90
67163;DHT22;54092;53.088;8.850;2024-01-11T10:54:50;0.00;99.90
67163;DHT22;54092;53.088;8.850;2024-01-11T10:57:16;0.00;99.90
67163;DHT22;54092;53.088;8.850;2024-01-11T10:59:42;0.00;99.90
67163;DHT22;54092;53.088;8.850;2024-01-11T11:02:08;0.10;99.90
67163;DHT22;54092;53.088;8.850;2024-01-11T11:04:38;0.10;99.90
67163;DHT22;54092;53.088;8.850;2024-01-11T11:07:03;0.20;99.90
67163;DHT22;54092;53.088;8.850;2024-01-11T11:09:32;0.20;99.90
67163;DHT22;54092;53.088;8.850;2024-01-11T11:11:58;0.20;99.90
67163;DHT22;54092;53.088;8.850;2024-01-11T11:14:23;0.30;99.90
67163;DHT22;54092;53.088;8.850;2024-01-11T11:16:49;0.30;99.90
67163;DHT22;54092;53.088;8.850;2024-01-11T11:19:15;0.30;99.90
67163;DHT22;54092;53.088;8.850;2024-01-11T11:21:42;0.30;99.90
67163;DHT22;54092;53.088;8.850;2024-01-11T11:24:07;0.30;99.90
67163;DHT22;54092;53.088;8.850;2024-01-11T11:26:33;0.40;99.90
67163;DHT22;54092;53.088;8.850;2024-01-11T11:28:58;0.40;99.90
67163;DHT22;54092;53.088;8.850;2024-01-11T11:31:36;0.40;99.90
67163;DHT22;54092;53.088;8.850;2024-01-11T11:34:03;0.40;99.90
67163;DHT22;54092;53.088;8.850;2024-01-11T11:36:29;0.50;99.90
67163;DHT22;54092;53.088;8.850;2024-01-11T11:38:54;0.60;99.90
67163;DHT22;54092;53.088;8.850;2024-01-11T11:41:25;0.70;99.90
67163;DHT22;54092;53.088;8.850;2024-01-11T11:43:51;1.30;99.90
67163;DHT22;54092;53.088;8.850;2024-01-11T11:46:16;0.80;99.90
67163;DHT22;54092;53.088;8.850;2024-01-11T11:51:15;0.80;99.90
67163;DHT22;54092;53.088;8.850;2024-01-11T11:53:41;0.80;99.90
67163;DHT22;54092;53.088;8.850;2024-01-11T11:56:07;0.90;99.90
67163;DHT22;54092;53.088;8.850;2024-01-11T11:58:33;0.90;99.90
67163;DHT22;54092;53.088;8.850;2024-01-11T12:00:59;0.90;99.90
67163;DHT22;54092;53.088;8.850;2024-01-11T12:03:31;0.90;99.90
67163;DHT22;54092;53.088;8.850;2024-01-11T12:06:03;1.00;99.90
67163;DHT22;54092;53.088;8.850;2024-01-11T12:08:29;1.00;99.90
67163;DHT22;54092;53.088;8.850;2024-01-11T12:10:54;1.00;99.90
67163;DHT22;54092;53.088;8.850;2024-01-11T12:13:20;0.90;99.90
67163;DHT22;54092;53.088;8.850;2024-01-11T12:15:46;0.90;99.90
67163;DHT22;54092;53.088;8.850;2024-01-11T12:18:11;0.90;99.90
67163;DHT22;54092;53.088;8.850;2024-01-11T12:20:37;0.90;99.90
67163;DHT22;54092;53.088;8.850;2024-01-11T12:23:02;0.80;99.90
67163;DHT22;54092;53.088;8.850;2024-01-11T12:25:28;0.90;99.90
67163;DHT22;54092;53.088;8.850;2024-01-11T12:27:54;0.90;99.90
67163;DHT22;54092;53.088;8.850;2024-01-11T12:30:22;0.90;99.90
67163;DHT22;54092;53.088;8.850;2024-01-11T12:32:47;1.00;99.90
67163;DHT22;54092;53.088;8.850;2024-01-11T12:35:13;1.00;99.90
67163;DHT22;54092;53.088;8.850;2024-01-11T12:37:38;1.00;99.90
67163;DHT22;54092;53.088;8.850;2024-01-11T12:40:04;1.00;99.90
67163;DHT22;54092;53.088;8.850;2024-01-11T12:42:34;1.10;99.90
67163;DHT22;54092;53.088;8.850;2024-01-11T12:44:59;1.10;99.90
67163;DHT22;54092;53.088;8.850;2024-01-11T12:47:25;1.10;99.90
67163;DHT22;54092;53.088;8.850;2024-01-11T12:49:50;1.10;99.90
67163;DHT22;54092;53.088;8.850;2024-01-11T12:52:20;1.10;99.90
67163;DHT22;54092;53.088;8.850;2024-01-11T12:54:45;1.10;99.90
67163;DHT22;54092;53.088;8.850;2024-01-11T12:57:12;1.10;99.90
67163;DHT22;54092;53.088;8.850;2024-01-11T12:59:37;1.10;99.90
67163;DHT22;54092;53.088;8.850;2024-01-11T13:02:05;1.20;99.90
67163;DHT22;54092;53.088;8.850;2024-01-11T13:04:31;1.20;99.90
67163;DHT22;54092;53.088;8.850;2024-01-11T13:06:56;1.20;99.90
67163;DHT22;54092;53.088;8.850;2024-01-11T13:09:21;1.30;99.90
67163;DHT22;54092;53.088;8.850;2024-01-11T13:11:48;1.30;99.90
67163;DHT22;54092;53.088;8.850;2024-01-11T13:14:14;1.20;99.90
67163;DHT22;54092;53.088;8.850;2024-01-11T13:16:44;1.30;99.90
67163;DHT22;54092;53.088;8.850;2024-01-11T13:19:10;1.30;99.90
67163;DHT22;54092;53.088;8.850;2024-01-11T13:21:36;1.30;99.90
67163;DHT22;54092;53.088;8.850;2024-01-11T13:24:02;1.40;99.90
67163;DHT22;54092;53.088;8.850;2024-01-11T13:26:28;1.40;99.90
67163;DHT22;54092;53.088;8.850;2024-01-11T13:28:53;1.40;99.90
67163;DHT22;54092;53.088;8.850;2024-01-11T13:31:19;1.40;99.90
67163;DHT22;54092;53.088;8.850;2024-01-11T13:33:45;1.40;99.90
67163;DHT22;54092;53.088;8.850;2024-01-11T13:36:10;1.50;99.90
67163;DHT22;54092;53.088;8.850;2024-01-11T13:38:36;1.50;99.90
67163;DHT22;54092;53.088;8.850;2024-01-11T13:41:01;1.60;99.90
67163;DHT22;54092;53.088;8.850;2024-01-11T13:43:27;1.60;99.90
67163;DHT22;54092;53.088;8.850;2024-01-11T13:45:52;1.60;99.90
67163;DHT22;54092;53.088;8.850;2024-01-11T13:48:19;1.60;99.90
67163;DHT22;54092;53.088;8.850;2024-01-11T13:50:45;1.60;99.90
67163;DHT22;54092;53.088;8.850;2024-01-11T13:53:10;1.50;99.90
67163;DHT22;54092;53.088;8.850;2024-01-11T13:55:35;1.60;99.90
67163;DHT22;54092;53.088;8.850;2024-01-11T13:58:04;1.60;99.90
67163;DHT22;54092;53.088;8.850;2024-01-11T14:00:30;1.50;99.90
67163;DHT22;54092;53.088;8.850;2024-01-11T14:02:55;1.50;99.90
67163;DHT22;54092;53.088;8.850;2024-01-11T14:05:21;1.50;99.90
67163;DHT22;54092;53.088;8.850;2024-01-11T14:07:46;1.60;99.90
67163;DHT22;54092;53.088;8.850;2024-01-11T14:10:13;1.60;99.90
67163;DHT22;54092;53.088;8.850;2024-01-11T14:12:39;1.60;99.90
67163;DHT22;54092;53.088;8.850;2024-01-11T14:15:04;1.60;99.90
67163;DHT22;54092;53.088;8.850;2024-01-11T14:17:30;1.60;99.90
67163;DHT22;54092;53.088;8.850;2024-01-11T14:19:56;1.70;99.90
67163;DHT22;54092;53.088;8.850;2024-01-11T14:22:21;1.70;99.90
67163;DHT22;54092;53.088;8.850;2024-01-11T14:24:47;1.70;99.90
67163;DHT22;54092;53.088;8.850;2024-01-11T14:27:12;1.70;99.90
67163;DHT22;54092;53.088;8.850;2024-01-11T14:29:39;1.80;99.90
67163;DHT22;54092;53.088;8.850;2024-01-11T14:32:05;1.80;99.90
67163;DHT22;54092;53.088;8.850;2024-01-11T14:34:30;1.80;99.90
67163;DHT22;54092;53.088;8.850;2024-01-11T14:36:56;1.80;99.90
67163;DHT22;54092;53.088;8.850;2024-01-11T14:39:21;1.80;99.90
67163;DHT22;54092;53.088;8.850;2024-01-11T14:41:49;1.80;99.90
67163;DHT22;54092;53.088;8.850;2024-01-11T14:44:14;1.80;99.90
67163;DHT22;54092;53.088;8.850;2024-01-11T14:46:39;1.80;99.90
67163;DHT22;54092;53.088;8.850;2024-01-11T14:49:07;1.80;99.90
67163;DHT22;54092;53.088;8.850;2024-01-11T14:51:33;1.90;99.90
67163;DHT22;54092;53.088;8.850;2024-01-11T14:53:59;1.90;99.90
67163;DHT22;54092;53.088;8.850;2024-01-11T14:56:25;1.90;99.90
67163;DHT22;54092;53.088;8.850;2024-01-11T14:58:50;1.90;99.90
67163;DHT22;54092;53.088;8.850;2024-01-11T15:01:15;1.90;99.90
67163;DHT22;54092;53.088;8.850;2024-01-11T15:03:41;1.90;99.90
67163;DHT22;54092;53.088;8.850;2024-01-11T15:06:06;1.90;99.90
67163;DHT22;54092;53.088;8.850;2024-01-11T15:08:32;1.90;99.90
67163;DHT22;54092;53.088;8.850;2024-01-11T15:10:57;1.90;99.90
67163;DHT22;54092;53.088;8.850;2024-01-11T15:13:23;1.80;99.90
67163;DHT22;54092;53.088;8.850;2024-01-11T15:15:48;1.90;99.90
67163;DHT22;54092;53.088;8.850;2024-01-11T15:18:13;1.90;99.90
67163;DHT22;54092;53.088;8.850;2024-01-11T15:20:39;1.80;99.90
67163;DHT22;54092;53.088;8.850;2024-01-11T15:23:04;1.90;99.90
67163;DHT22;54092;53.088;8.850;2024-01-11T15:25:30;1.90;99.90
67163;DHT22;54092;53.088;8.850;2024-01-11T15:27:56;1.90;99.90
67163;DHT22;54092;53.088;8.850;2024-01-11T15:30:21;1.90;99.90